Time;durP1;ratioP1;P1;durP2;ratioP2;P2;SDS_P1;SDS_P2;PMS_P1;PMS_P2;Temp;Humidity;BMP_temperature;BMP_pressure;BME280_temperature;BME280_humidity;BME280_pressure;Samples;Min_cycle;Max_cycle;Signal;HPM_P1;HPM_P2
2022/06/13 00:00:12;;;;;;;13.35;6.10;;;;;;;;;;5077116;28;20063;-64
2022/06/13 00:02:38;;;;;;;19.67;7.15;;;;;;;;;;5096291;28;20032;-64
2022/06/13 00:05:05;;;;;;;14.23;5.97;;;;;;;;;;5096501;28;20422;-64
2022/06/13 00:07:32;;;;;;;19.75;6.47;;;;;;;;;;5099204;28;20509;-64
2022/06/13 00:09:58;;;;;;;14.93;6.50;;;;;;;;;;5078034;28;20044;-64
2022/06/13 00:12:24;;;;;;;14.40;5.60;;;;;;;;;;5097880;28;20168;-64
2022/06/13 00:14:51;;;;;;;19.35;7.50;;;;;;;;;;5064290;28;20114;-64
2022/06/13 00:17:17;;;;;;;14.98;6.90;;;;;;;;;;5102983;28;20119;-64
2022/06/13 00:19:43;;;;;;;13.95;6.18;;;;;;;;;;5099444;28;20058;-64
2022/06/13 00:22:09;;;;;;;15.45;6.40;;;;;;;;;;5080882;28;20178;-64
2022/06/13 00:24:36;;;;;;;17.90;6.20;;;;;;;;;;5099226;28;20040;-64
2022/06/13 00:27:02;;;;;;;20.35;6.90;;;;;;;;;;5103704;28;20089;-64
2022/06/13 00:29:28;;;;;;;14.77;6.20;;;;;;;;;;5096404;28;20071;-64
2022/06/13 00:31:54;;;;;;;15.05;6.15;;;;;;;;;;5077292;28;20112;-64
2022/06/13 00:34:20;;;;;;;17.92;6.72;;;;;;;;;;5098664;28;20527;-64
2022/06/13 00:36:47;;;;;;;14.82;6.15;;;;;;;;;;5078868;28;20063;-64
2022/06/13 00:39:13;;;;;;;13.77;6.45;;;;;;;;;;5095387;28;20138;-64
2022/06/13 00:41:40;;;;;;;17.00;6.65;;;;;;;;;;5077561;28;20457;-64
2022/06/13 00:44:26;;;;;;;15.02;5.65;;;;;;;;;;5098371;28;20123;-64
2022/06/13 00:46:53;;;;;;;16.20;6.30;;;;;;;;;;5095861;28;20055;-64
2022/06/13 00:49:21;;;;;;;13.43;6.10;;;;;;;;;;5095608;28;20104;-64
2022/06/13 00:51:49;;;;;;;18.45;6.50;;;;;;;;;;5094728;28;20050;-64
2022/06/13 00:54:18;;;;;;;19.15;6.57;;;;;;;;;;5102962;28;20040;-64
2022/06/13 00:56:47;;;;;;;21.35;6.40;;;;;;;;;;5081971;28;20507;-64
2022/06/13 00:59:15;;;;;;;22.20;7.38;;;;;;;;;;5101179;28;20040;-64
2022/06/13 01:01:41;;;;;;;13.93;5.95;;;;;;;;;;5081862;28;20056;-64
2022/06/13 01:04:08;;;;;;;17.48;6.15;;;;;;;;;;5101207;28;20051;-64
2022/06/13 01:06:35;;;;;;;16.25;6.53;;;;;;;;;;5097909;28;20038;-64
2022/06/13 01:09:03;;;;;;;18.23;7.20;;;;;;;;;;5082418;28;20089;-64
2022/06/13 01:11:30;;;;;;;14.13;6.72;;;;;;;;;;5106784;28;20039;-64
2022/06/13 01:14:01;;;;;;;16.65;6.22;;;;;;;;;;5104496;27;20395;-64
2022/06/13 01:16:34;;;;;;;17.33;7.20;;;;;;;;;;5107345;28;20123;-64
2022/06/13 01:19:00;;;;;;;11.82;5.97;;;;;;;;;;5104205;28;20046;-64
2022/06/13 01:21:30;;;;;;;16.52;6.70;;;;;;;;;;5106294;28;20082;-64
2022/06/13 01:24:09;;;;;;;22.08;8.27;;;;;;;;;;5101159;28;20463;-64
2022/06/13 01:26:45;;;;;;;16.55;6.72;;;;;;;;;;5103407;28;20035;-64
2022/06/13 01:29:30;;;;;;;17.25;7.45;;;;;;;;;;5079317;28;20051;-64
2022/06/13 01:31:58;;;;;;;14.95;7.53;;;;;;;;;;5082326;28;20047;-64
2022/06/13 01:34:27;;;;;;;21.52;6.47;;;;;;;;;;5107217;27;20046;-64
2022/06/13 01:37:10;;;;;;;19.83;6.88;;;;;;;;;;5090858;28;20039;-64
2022/06/13 01:39:41;;;;;;;18.58;8.00;;;;;;;;;;5101928;28;20043;-64
2022/06/13 01:42:12;;;;;;;18.17;7.50;;;;;;;;;;5097018;28;20502;-64
2022/06/13 01:44:52;;;;;;;16.63;7.50;;;;;;;;;;5105420;28;20063;-64
2022/06/13 01:47:29;;;;;;;16.85;8.45;;;;;;;;;;5101594;28;20444;-64
2022/06/13 01:49:56;;;;;;;13.95;7.57;;;;;;;;;;5082708;28;20564;-64
2022/06/13 01:52:23;;;;;;;17.45;7.70;;;;;;;;;;5098703;28;20040;-64
2022/06/13 01:54:53;;;;;;;18.63;7.45;;;;;;;;;;5106060;28;20052;-64
2022/06/13 01:57:22;;;;;;;22.45;8.07;;;;;;;;;;5082480;28;20500;-64
2022/06/13 01:59:54;;;;;;;17.13;7.20;;;;;;;;;;5099652;28;20047;-64
2022/06/13 02:02:30;;;;;;;22.80;7.60;;;;;;;;;;5105140;28;20040;-64
2022/06/13 02:05:00;;;;;;;23.83;7.47;;;;;;;;;;5102439;28;20160;-64
2022/06/13 02:07:28;;;;;;;20.60;6.57;;;;;;;;;;5104401;28;20059;-64
2022/06/13 02:10:01;;;;;;;17.92;5.70;;;;;;;;;;5104873;28;20040;-65
2022/06/13 02:12:30;;;;;;;16.65;5.57;;;;;;;;;;5085033;28;20075;-64
2022/06/13 02:15:00;;;;;;;11.70;4.50;;;;;;;;;;5096754;28;20066;-64
2022/06/13 02:17:29;;;;;;;11.75;4.15;;;;;;;;;;5102665;28;20181;-64
2022/06/13 02:19:57;;;;;;;11.35;4.40;;;;;;;;;;5080783;28;20109;-64
2022/06/13 02:22:29;;;;;;;12.15;4.93;;;;;;;;;;5076624;28;20160;-64
2022/06/13 02:25:04;;;;;;;10.30;3.20;;;;;;;;;;5097611;28;20067;-64
2022/06/13 02:27:38;;;;;;;10.95;3.60;;;;;;;;;;5099502;28;20526;-64
2022/06/13 02:30:06;;;;;;;12.35;3.28;;;;;;;;;;5077069;28;20526;-64
2022/06/13 02:32:37;;;;;;;11.70;3.15;;;;;;;;;;5099389;28;20407;-64
2022/06/13 02:35:06;;;;;;;11.25;3.38;;;;;;;;;;5097598;28;20051;-64
2022/06/13 02:37:43;;;;;;;13.20;3.72;;;;;;;;;;5101322;28;20043;-64
2022/06/13 02:40:11;;;;;;;16.25;3.80;;;;;;;;;;5098909;28;20372;-64
2022/06/13 02:42:58;;;;;;;13.60;3.15;;;;;;;;;;5099738;28;20411;-64
2022/06/13 02:45:28;;;;;;;15.02;2.97;;;;;;;;;;5084479;28;20048;-64
2022/06/13 02:48:08;;;;;;;13.43;3.55;;;;;;;;;;5107328;28;20079;-64
2022/06/13 02:50:48;;;;;;;12.60;2.85;;;;;;;;;;5102702;28;20035;-64
2022/06/13 02:53:18;;;;;;;14.50;4.13;;;;;;;;;;5081119;28;20047;-64
2022/06/13 02:55:49;;;;;;;12.55;2.80;;;;;;;;;;5085728;28;20039;-64
2022/06/13 02:58:18;;;;;;;10.88;3.55;;;;;;;;;;5102108;28;20403;-64
2022/06/13 03:00:52;;;;;;;10.40;3.45;;;;;;;;;;5078608;28;20040;-64
2022/06/13 03:03:25;;;;;;;12.70;3.67;;;;;;;;;;5100739;28;20090;-64
2022/06/13 03:05:58;;;;;;;14.60;3.72;;;;;;;;;;5097988;28;20380;-64
2022/06/13 03:08:32;;;;;;;15.88;3.53;;;;;;;;;;5078150;28;20506;-64
2022/06/13 03:11:09;;;;;;;9.88;2.70;;;;;;;;;;5104979;28;20093;-64
2022/06/13 03:13:54;;;;;;;11.95;3.03;;;;;;;;;;5083263;28;20456;-64
2022/06/13 03:16:26;;;;;;;13.25;3.53;;;;;;;;;;5080843;28;20057;-64
2022/06/13 03:18:56;;;;;;;9.13;2.60;;;;;;;;;;5102851;28;20039;-64
2022/06/13 03:21:32;;;;;;;12.25;2.90;;;;;;;;;;5093027;28;20071;-64
2022/06/13 03:24:00;;;;;;;6.97;2.30;;;;;;;;;;5080286;28;20039;-64
2022/06/13 03:26:29;;;;;;;11.52;2.83;;;;;;;;;;5100742;28;20127;-64
2022/06/13 03:28:56;;;;;;;10.23;2.58;;;;;;;;;;5099471;28;20039;-64
2022/06/13 03:31:34;;;;;;;10.38;2.38;;;;;;;;;;5056917;28;20044;-64
2022/06/13 03:34:03;;;;;;;13.13;3.03;;;;;;;;;;5096256;28;20517;-64
2022/06/13 03:36:31;;;;;;;9.75;2.30;;;;;;;;;;5097246;28;20412;-64
2022/06/13 03:39:02;;;;;;;10.50;2.50;;;;;;;;;;5104436;28;20062;-64
2022/06/13 03:41:33;;;;;;;11.68;2.70;;;;;;;;;;5099252;28;20039;-64
2022/06/13 03:44:02;;;;;;;8.38;2.58;;;;;;;;;;5102317;28;20044;-64
2022/06/13 03:46:33;;;;;;;11.18;3.15;;;;;;;;;;5101874;28;20054;-64
2022/06/13 03:49:04;;;;;;;8.45;2.50;;;;;;;;;;5100917;28;20075;-64
2022/06/13 03:51:32;;;;;;;10.38;2.38;;;;;;;;;;5079353;28;20048;-64
2022/06/13 03:54:02;;;;;;;8.95;2.00;;;;;;;;;;5100064;28;20145;-64
2022/06/13 03:56:32;;;;;;;9.27;2.10;;;;;;;;;;5079561;28;20051;-64
2022/06/13 03:59:10;;;;;;;9.15;2.20;;;;;;;;;;5096979;27;20170;-64
2022/06/13 04:01:39;;;;;;;16.02;2.47;;;;;;;;;;5089141;28;20032;-64
2022/06/13 04:04:06;;;;;;;9.13;2.25;;;;;;;;;;5098437;27;20039;-64
2022/06/13 04:06:36;;;;;;;8.90;2.00;;;;;;;;;;5094416;28;20165;-64
2022/06/13 04:09:04;;;;;;;6.47;2.40;;;;;;;;;;5097325;28;20518;-64
2022/06/13 04:11:51;;;;;;;10.85;2.42;;;;;;;;;;5096931;28;20043;-64
2022/06/13 04:14:36;;;;;;;9.02;2.10;;;;;;;;;;5102611;28;20131;-64
2022/06/13 04:17:13;;;;;;;12.05;2.47;;;;;;;;;;5079937;28;20285;-64
2022/06/13 04:19:40;;;;;;;15.57;3.35;;;;;;;;;;5099823;28;20498;-64
2022/06/13 04:22:06;;;;;;;9.77;2.80;;;;;;;;;;5080188;28;20441;-64
2022/06/13 04:24:39;;;;;;;14.20;3.00;;;;;;;;;;5099272;28;20054;-64
2022/06/13 04:27:12;;;;;;;9.65;1.85;;;;;;;;;;5096879;28;20395;-64
2022/06/13 04:29:44;;;;;;;7.15;1.85;;;;;;;;;;5098383;28;20043;-64
2022/06/13 04:32:12;;;;;;;9.70;2.00;;;;;;;;;;5098261;28;20085;-64
2022/06/13 04:34:42;;;;;;;8.20;1.60;;;;;;;;;;5106967;28;20134;-65
2022/06/13 04:37:09;;;;;;;9.57;1.50;;;;;;;;;;5107025;28;20046;-65
2022/06/13 04:39:36;;;;;;;8.98;1.55;;;;;;;;;;5088858;28;20090;-64
2022/06/13 04:42:04;;;;;;;8.05;1.60;;;;;;;;;;5107794;28;20045;-64
2022/06/13 04:44:32;;;;;;;8.43;1.52;;;;;;;;;;5107913;28;20145;-65
2022/06/13 04:46:59;;;;;;;5.55;1.25;;;;;;;;;;5088532;28;20055;-64
2022/06/13 04:49:34;;;;;;;7.95;1.90;;;;;;;;;;5105005;28;20047;-64
2022/06/13 04:52:02;;;;;;;5.15;1.48;;;;;;;;;;5102477;28;20336;-64
2022/06/13 04:54:33;;;;;;;6.88;1.67;;;;;;;;;;5111102;28;20047;-64
2022/06/13 04:56:59;;;;;;;7.10;1.90;;;;;;;;;;5090613;28;20134;-64
2022/06/13 04:59:26;;;;;;;8.85;2.30;;;;;;;;;;5104137;28;20047;-64
2022/06/13 05:01:53;;;;;;;6.97;1.75;;;;;;;;;;5110472;27;20036;-65
2022/06/13 05:04:21;;;;;;;10.23;2.20;;;;;;;;;;5091412;28;20078;-64
2022/06/13 05:06:50;;;;;;;6.80;1.55;;;;;;;;;;5106023;28;20475;-64
2022/06/13 05:09:21;;;;;;;6.10;1.92;;;;;;;;;;5100115;28;20422;-63
2022/06/13 05:11:50;;;;;;;5.07;1.45;;;;;;;;;;5100566;27;20126;-63
2022/06/13 05:14:20;;;;;;;6.00;1.70;;;;;;;;;;5106417;28;20089;-64
2022/06/13 05:16:54;;;;;;;7.60;1.48;;;;;;;;;;5101627;28;20086;-64
2022/06/13 05:19:27;;;;;;;9.80;1.70;;;;;;;;;;5085717;28;20051;-64
2022/06/13 05:21:55;;;;;;;11.30;2.15;;;;;;;;;;5088387;28;20119;-63
2022/06/13 05:24:24;;;;;;;8.88;1.92;;;;;;;;;;5087083;28;20372;-63
2022/06/13 05:26:50;;;;;;;8.98;1.65;;;;;;;;;;5107843;28;20487;-64
2022/06/13 05:29:16;;;;;;;8.73;1.42;;;;;;;;;;5082920;28;20058;-64
2022/06/13 05:31:43;;;;;;;5.45;1.52;;;;;;;;;;5098825;28;20056;-63
2022/06/13 05:34:15;;;;;;;8.25;1.23;;;;;;;;;;5105806;28;20039;-64
2022/06/13 05:36:41;;;;;;;9.15;1.80;;;;;;;;;;5106148;28;20050;-64
2022/06/13 05:39:07;;;;;;;8.63;1.75;;;;;;;;;;5090243;28;20043;-64
2022/06/13 05:41:34;;;;;;;8.65;1.90;;;;;;;;;;5081195;28;20502;-64
2022/06/13 05:44:00;;;;;;;8.52;1.90;;;;;;;;;;5111176;28;20031;-64
2022/06/13 05:46:27;;;;;;;8.10;1.80;;;;;;;;;;5110310;28;20048;-64
2022/06/13 05:48:54;;;;;;;8.93;2.08;;;;;;;;;;5102496;28;20124;-63
2022/06/13 05:51:20;;;;;;;8.23;2.13;;;;;;;;;;5107229;28;20122;-64
2022/06/13 05:53:46;;;;;;;12.90;1.77;;;;;;;;;;5088731;28;20062;-70
2022/06/13 05:56:12;;;;;;;11.60;2.17;;;;;;;;;;5084003;28;20046;-64
2022/06/13 05:58:39;;;;;;;7.78;1.55;;;;;;;;;;5104723;28;20201;-66
2022/06/13 06:01:05;;;;;;;9.07;1.90;;;;;;;;;;5062297;28;20040;-64
2022/06/13 06:03:32;;;;;;;10.40;1.70;;;;;;;;;;5107451;27;20039;-64
2022/06/13 06:05:59;;;;;;;7.60;1.50;;;;;;;;;;5100853;28;20047;-64
2022/06/13 06:08:27;;;;;;;10.82;1.98;;;;;;;;;;5082090;28;20480;-64
2022/06/13 06:10:54;;;;;;;9.15;1.60;;;;;;;;;;5079207;28;20055;-63
2022/06/13 06:13:20;;;;;;;5.85;1.63;;;;;;;;;;5103494;28;20452;-63
2022/06/13 06:15:48;;;;;;;9.05;1.88;;;;;;;;;;5108275;27;20044;-63
2022/06/13 06:18:15;;;;;;;11.75;2.70;;;;;;;;;;5079402;28;20119;-64
2022/06/13 06:20:41;;;;;;;9.73;3.25;;;;;;;;;;5113635;27;20035;-63
2022/06/13 06:23:09;;;;;;;9.48;2.25;;;;;;;;;;5098021;27;20092;-64
2022/06/13 06:25:35;;;;;;;12.77;2.10;;;;;;;;;;5102663;28;20047;-63
2022/06/13 06:28:02;;;;;;;11.85;2.55;;;;;;;;;;5098753;27;20109;-63
2022/06/13 06:30:28;;;;;;;9.35;1.67;;;;;;;;;;5099686;27;20077;-63
2022/06/13 06:32:55;;;;;;;14.45;2.38;;;;;;;;;;5101890;27;20043;-63
2022/06/13 06:35:21;;;;;;;12.73;2.25;;;;;;;;;;5103868;28;20565;-63
2022/06/13 06:37:48;;;;;;;15.98;2.22;;;;;;;;;;5099031;27;20044;-64
2022/06/13 06:40:16;;;;;;;14.15;2.05;;;;;;;;;;5076671;28;20526;-63
2022/06/13 06:42:42;;;;;;;10.40;2.00;;;;;;;;;;5105798;28;20043;-63
2022/06/13 06:45:09;;;;;;;10.52;2.47;;;;;;;;;;5105050;27;20055;-63
2022/06/13 06:47:36;;;;;;;12.95;1.98;;;;;;;;;;5105170;28;20503;-63
2022/06/13 06:50:03;;;;;;;11.52;2.00;;;;;;;;;;5106559;27;20394;-63
2022/06/13 06:52:29;;;;;;;8.55;1.77;;;;;;;;;;5102840;27;20078;-63
2022/06/13 07:00:25;;;;;;;7.25;1.85;;;;;;;;;;5105215;27;20036;-63
2022/06/13 07:02:52;;;;;;;11.40;1.80;;;;;;;;;;5115322;27;20044;-63
2022/06/13 07:05:18;;;;;;;11.52;1.80;;;;;;;;;;5075235;27;20085;-64
2022/06/13 07:07:44;;;;;;;10.07;1.80;;;;;;;;;;5109423;28;20136;-63
2022/06/13 07:10:12;;;;;;;14.30;2.47;;;;;;;;;;5105909;28;20036;-66
2022/06/13 07:12:38;;;;;;;9.48;1.80;;;;;;;;;;5095820;27;20467;-65
2022/06/13 07:15:04;;;;;;;8.93;1.92;;;;;;;;;;5101285;27;20043;-65
2022/06/13 07:17:31;;;;;;;3.72;1.10;;;;;;;;;;5102200;28;20059;-62
2022/06/13 07:19:57;;;;;;;9.27;1.75;;;;;;;;;;5078555;28;20447;-65
2022/06/13 07:22:24;;;;;;;3.97;0.90;;;;;;;;;;5095202;27;20036;-66
2022/06/13 07:24:51;;;;;;;4.18;0.90;;;;;;;;;;5103954;28;20048;-65
2022/06/13 07:27:17;;;;;;;5.80;1.10;;;;;;;;;;5098611;27;20047;-65
2022/06/13 07:29:43;;;;;;;6.68;1.17;;;;;;;;;;5103668;27;20039;-65
2022/06/13 07:32:13;;;;;;;5.78;1.20;;;;;;;;;;5081073;27;20052;-65
2022/06/13 07:34:39;;;;;;;6.65;1.00;;;;;;;;;;5074539;28;20081;-66
2022/06/13 07:37:07;;;;;;;5.93;1.25;;;;;;;;;;5087091;28;20166;-65
2022/06/13 07:39:33;;;;;;;7.28;1.10;;;;;;;;;;5085252;28;20054;-65
2022/06/13 07:42:00;;;;;;;7.80;1.40;;;;;;;;;;5094600;28;20038;-66
2022/06/13 07:44:29;;;;;;;10.23;1.42;;;;;;;;;;5061941;28;20047;-66
2022/06/13 07:46:56;;;;;;;4.63;1.08;;;;;;;;;;5101701;28;20340;-65
2022/06/13 07:49:22;;;;;;;8.02;1.50;;;;;;;;;;5102938;28;20149;-65
2022/06/13 07:51:49;;;;;;;9.73;1.25;;;;;;;;;;5104645;28;20120;-65
2022/06/13 07:54:15;;;;;;;10.98;1.58;;;;;;;;;;5076863;28;20482;-66
2022/06/13 07:56:42;;;;;;;10.18;1.83;;;;;;;;;;5098969;28;20059;-66
2022/06/13 07:59:13;;;;;;;15.02;1.98;;;;;;;;;;5100656;28;20054;-65
2022/06/13 08:01:39;;;;;;;10.07;1.55;;;;;;;;;;5099695;28;20062;-65
2022/06/13 08:04:05;;;;;;;15.35;2.03;;;;;;;;;;5084511;28;20051;-65
2022/06/13 08:06:32;;;;;;;11.82;2.08;;;;;;;;;;5081379;27;20122;-66
2022/06/13 08:08:58;;;;;;;8.27;1.80;;;;;;;;;;5075297;28;20135;-66
2022/06/13 08:11:28;;;;;;;12.60;2.03;;;;;;;;;;5106627;28;20119;-65
2022/06/13 08:13:55;;;;;;;8.90;1.92;;;;;;;;;;5100102;28;20069;-65
2022/06/13 08:16:21;;;;;;;9.18;1.75;;;;;;;;;;5081452;28;20075;-65
2022/06/13 08:18:47;;;;;;;8.57;1.50;;;;;;;;;;5079212;28;20047;-64
2022/06/13 08:21:13;;;;;;;12.13;1.45;;;;;;;;;;5102343;28;20108;-65
2022/06/13 08:23:40;;;;;;;10.23;1.58;;;;;;;;;;5079191;28;20047;-66
2022/06/13 08:26:06;;;;;;;12.65;1.73;;;;;;;;;;5081702;28;20946;-65
2022/06/13 08:28:32;;;;;;;11.88;2.00;;;;;;;;;;5078022;28;20130;-65
2022/06/13 08:31:01;;;;;;;8.80;1.85;;;;;;;;;;5074248;28;20035;-66
2022/06/13 08:33:27;;;;;;;10.93;1.83;;;;;;;;;;5105209;28;20475;-65
2022/06/13 08:35:53;;;;;;;9.90;2.00;;;;;;;;;;5101799;28;20117;-65
2022/06/13 08:38:20;;;;;;;10.90;2.25;;;;;;;;;;5079731;28;20051;-65
2022/06/13 08:40:51;;;;;;;9.18;2.92;;;;;;;;;;5079928;28;20050;-65
2022/06/13 08:43:39;;;;;;;9.15;2.35;;;;;;;;;;5104239;28;20046;-66
2022/06/13 08:46:14;;;;;;;11.68;1.63;;;;;;;;;;5099084;28;20103;-65
2022/06/13 08:48:44;;;;;;;10.40;2.22;;;;;;;;;;5100994;28;20355;-66
2022/06/13 08:51:11;;;;;;;11.77;1.83;;;;;;;;;;5077693;28;20440;-65
2022/06/13 08:53:42;;;;;;;11.50;2.30;;;;;;;;;;5076606;28;20080;-62
2022/06/13 08:56:10;;;;;;;12.30;2.20;;;;;;;;;;5104295;28;20445;-67
2022/06/13 08:58:36;;;;;;;9.48;1.95;;;;;;;;;;5080786;28;20074;-66
2022/06/13 09:01:07;;;;;;;10.13;1.75;;;;;;;;;;5104476;28;20426;-66
2022/06/13 09:03:41;;;;;;;12.50;1.80;;;;;;;;;;5111866;28;20081;-66
2022/06/13 09:06:18;;;;;;;13.50;1.83;;;;;;;;;;5082090;28;20089;-66
2022/06/13 09:08:48;;;;;;;15.43;2.40;;;;;;;;;;5105354;28;20043;-66
2022/06/13 09:11:17;;;;;;;12.73;2.25;;;;;;;;;;5079689;28;20052;-66
2022/06/13 09:13:44;;;;;;;16.02;2.70;;;;;;;;;;5094059;28;20086;-66
2022/06/13 09:16:13;;;;;;;12.77;1.65;;;;;;;;;;5105851;28;20080;-66
2022/06/13 09:18:48;;;;;;;14.07;2.05;;;;;;;;;;5110387;27;20047;-66
2022/06/13 09:21:27;;;;;;;11.55;2.28;;;;;;;;;;5108487;27;20051;-66
2022/06/13 09:24:00;;;;;;;11.52;1.83;;;;;;;;;;5105894;28;20043;-66
2022/06/13 09:26:27;;;;;;;;;;;;;;;;;;5105673;27;20044;-66
2022/06/13 09:29:00;;;;;;;12.57;2.97;;;;;;;;;;5103876;28;19927;-66
2022/06/13 09:31:40;;;;;;;9.50;2.30;;;;;;;;;;5105074;27;20050;-66
2022/06/13 09:34:12;;;;;;;12.43;2.20;;;;;;;;;;5079337;28;20101;-66
2022/06/13 09:36:44;;;;;;;10.75;2.03;;;;;;;;;;5099910;27;20048;-62
2022/06/13 09:39:12;;;;;;;12.02;2.10;;;;;;;;;;5101145;28;20040;-62
2022/06/13 09:41:49;;;;;;;12.10;3.00;;;;;;;;;;5106655;27;20039;-65
2022/06/13 09:44:20;;;;;;;15.90;2.30;;;;;;;;;;5104485;27;20154;-64
2022/06/13 09:46:53;;;;;;;11.52;2.30;;;;;;;;;;5101091;28;20078;-64
2022/06/13 09:49:19;;;;;;;6.57;1.60;;;;;;;;;;5065503;28;20062;-64
2022/06/13 09:51:58;;;;;;;14.15;2.33;;;;;;;;;;5092784;27;20048;-64
2022/06/13 09:54:25;;;;;;;19.58;3.10;;;;;;;;;;5089951;28;20047;-64
2022/06/13 09:57:01;;;;;;;10.52;2.42;;;;;;;;;;5102257;28;20039;-64
2022/06/13 09:59:34;;;;;;;10.70;2.03;;;;;;;;;;5081002;28;20117;-64
2022/06/13 10:02:05;;;;;;;13.35;2.53;;;;;;;;;;5094575;28;20688;-63
2022/06/13 10:04:31;;;;;;;13.57;2.53;;;;;;;;;;5099533;28;20527;-63
2022/06/13 10:07:02;;;;;;;9.07;1.98;;;;;;;;;;5092468;28;20044;-63
2022/06/13 10:09:43;;;;;;;13.80;2.28;;;;;;;;;;5099603;28;20039;-64
2022/06/13 10:12:10;;;;;;;12.05;2.60;;;;;;;;;;5084885;28;20051;-64
2022/06/13 10:14:48;;;;;;;12.23;2.45;;;;;;;;;;5099598;27;20035;-64
2022/06/13 10:17:33;;;;;;;10.93;2.80;;;;;;;;;;5100951;27;20058;-64
2022/06/13 10:20:13;;;;;;;11.40;2.33;;;;;;;;;;5092266;28;20395;-64
2022/06/13 10:22:49;;;;;;;13.00;3.22;;;;;;;;;;5092671;28;20040;-64
2022/06/13 10:25:24;;;;;;;12.18;2.38;;;;;;;;;;5092213;28;20476;-64
2022/06/13 10:28:00;;;;;;;11.32;2.72;;;;;;;;;;5091574;28;20047;-64
2022/06/13 10:30:26;;;;;;;14.75;2.78;;;;;;;;;;5071785;28;20040;-66
2022/06/13 10:32:58;;;;;;;14.82;3.10;;;;;;;;;;5073575;28;20044;-66
2022/06/13 10:35:24;;;;;;;18.25;2.85;;;;;;;;;;5096106;27;20895;-66
2022/06/13 10:37:51;;;;;;;15.20;2.55;;;;;;;;;;5093378;28;20387;-66
2022/06/13 10:40:17;;;;;;;8.00;2.00;;;;;;;;;;5097318;28;20464;-65
2022/06/13 10:42:44;;;;;;;11.52;2.58;;;;;;;;;;5098563;28;20815;-65
2022/06/13 10:45:12;;;;;;;15.55;2.60;;;;;;;;;;5095489;27;20055;-65
2022/06/13 10:47:38;;;;;;;14.57;2.35;;;;;;;;;;5101044;28;20042;-63
2022/06/13 10:50:09;;;;;;;10.57;2.03;;;;;;;;;;5105145;27;20414;-63
2022/06/13 10:52:40;;;;;;;10.48;2.20;;;;;;;;;;5102565;28;20439;-63
2022/06/13 10:55:08;;;;;;;10.65;2.03;;;;;;;;;;5102817;28;20085;-64
2022/06/13 10:57:39;;;;;;;10.55;2.47;;;;;;;;;;5098060;28;20204;-63
2022/06/13 11:00:11;;;;;;;8.85;1.98;;;;;;;;;;5099490;27;20614;-63
2022/06/13 11:02:38;;;;;;;12.90;2.00;;;;;;;;;;5081529;28;20047;-64
2022/06/13 11:05:04;;;;;;;10.80;2.35;;;;;;;;;;5077645;28;20057;-63
2022/06/13 11:07:33;;;;;;;12.27;2.67;;;;;;;;;;5078812;28;20154;-63
2022/06/13 11:09:59;;;;;;;8.38;2.40;;;;;;;;;;5094140;28;20031;-63
2022/06/13 11:12:28;;;;;;;12.63;2.53;;;;;;;;;;5098838;28;20093;-63
2022/06/13 11:23:39;;;;;;;11.00;2.70;;;;;;;;;;5083270;28;20048;-63
2022/06/13 11:27:39;;;;;;;11.93;2.17;;;;;;;;;;5077954;28;20117;-63
2022/06/13 11:28:51;;;;;;;12.23;2.55;;;;;;;;;;5081278;28;20058;-63
2022/06/13 11:31:20;;;;;;;12.70;2.47;;;;;;;;;;5098525;28;20058;-63
2022/06/13 11:33:46;;;;;;;11.32;2.75;;;;;;;;;;5099198;27;20044;-63
2022/06/13 11:36:13;;;;;;;11.55;2.63;;;;;;;;;;5100895;28;20094;-63
2022/06/13 11:38:51;;;;;;;11.25;2.45;;;;;;;;;;5098762;28;20096;-63
2022/06/13 11:41:18;;;;;;;12.00;2.08;;;;;;;;;;5099640;28;20474;-63
2022/06/13 11:43:59;;;;;;;11.35;3.15;;;;;;;;;;5097508;28;20256;-63
2022/06/13 11:46:26;;;;;;;11.05;1.98;;;;;;;;;;5086391;28;21004;-64
2022/06/13 11:48:53;;;;;;;8.68;1.90;;;;;;;;;;5099046;28;20051;-63
2022/06/13 11:51:22;;;;;;;8.52;1.20;;;;;;;;;;5104928;27;20047;-63
2022/06/13 11:53:50;;;;;;;9.25;1.83;;;;;;;;;;5101207;28;20048;-63
2022/06/13 11:56:22;;;;;;;9.40;1.63;;;;;;;;;;5081667;28;20517;-63
2022/06/13 11:58:50;;;;;;;11.77;2.17;;;;;;;;;;5102869;28;20471;-63
2022/06/13 12:01:27;;;;;;;6.95;1.63;;;;;;;;;;5087541;28;20094;-63
2022/06/13 12:04:01;;;;;;;8.10;2.38;;;;;;;;;;5099715;28;20437;-64
2022/06/13 12:06:27;;;;;;;11.93;2.35;;;;;;;;;;5084395;28;20043;-63
2022/06/13 12:09:03;;;;;;;12.60;1.98;;;;;;;;;;5080428;28;20052;-63
2022/06/13 12:11:30;;;;;;;9.88;2.33;;;;;;;;;;5097489;28;20158;-64
2022/06/13 12:13:59;;;;;;;5.75;1.50;;;;;;;;;;5095748;28;20043;-64
2022/06/13 12:16:30;;;;;;;7.82;2.25;;;;;;;;;;5094319;28;20039;-64
2022/06/13 12:19:08;;;;;;;11.57;1.92;;;;;;;;;;5068709;28;20179;-64
2022/06/13 12:21:34;;;;;;;11.73;2.22;;;;;;;;;;5087961;28;20032;-64
2022/06/13 12:24:08;;;;;;;8.23;1.77;;;;;;;;;;5095709;28;20055;-63
2022/06/13 12:26:35;;;;;;;9.13;2.28;;;;;;;;;;5101504;28;20059;-64
2022/06/13 12:29:02;;;;;;;12.32;2.15;;;;;;;;;;5102948;28;20570;-63
2022/06/13 12:31:33;;;;;;;7.60;1.70;;;;;;;;;;5090110;28;20090;-63
2022/06/13 12:34:01;;;;;;;11.65;2.38;;;;;;;;;;5056246;28;20498;-63
2022/06/13 12:36:38;;;;;;;12.30;2.05;;;;;;;;;;5099752;28;20055;-64
2022/06/13 12:39:07;;;;;;;8.35;1.70;;;;;;;;;;5100702;28;20162;-64
2022/06/13 12:41:33;;;;;;;9.48;1.92;;;;;;;;;;5098554;28;20479;-63
2022/06/13 12:44:07;;;;;;;8.77;2.03;;;;;;;;;;5098687;28;20040;-63
2022/06/13 12:46:33;;;;;;;7.05;1.60;;;;;;;;;;5081677;28;20048;-63
2022/06/13 12:49:06;;;;;;;7.72;1.85;;;;;;;;;;5097484;28;20120;-63
2022/06/13 12:51:34;;;;;;;9.25;2.28;;;;;;;;;;5097210;28;20131;-63
2022/06/13 12:54:07;;;;;;;8.18;1.40;;;;;;;;;;5096982;28;20391;-63
2022/06/13 12:56:55;;;;;;;6.43;1.30;;;;;;;;;;5105472;28;20046;-63
2022/06/13 12:59:28;;;;;;;8.32;1.40;;;;;;;;;;5100459;28;21004;-63
2022/06/13 13:01:55;;;;;;;8.18;1.60;;;;;;;;;;5107829;28;20047;-63
2022/06/13 13:04:40;;;;;;;12.70;2.28;;;;;;;;;;5094392;28;20545;-64
2022/06/13 13:07:19;;;;;;;7.38;2.00;;;;;;;;;;5104347;28;20093;-63
2022/06/13 13:09:45;;;;;;;9.50;1.63;;;;;;;;;;5098406;28;20050;-63
2022/06/13 13:12:27;;;;;;;10.57;1.80;;;;;;;;;;5084840;28;20483;-63
2022/06/13 13:15:02;;;;;;;10.60;1.75;;;;;;;;;;5100949;28;20133;-64
2022/06/13 13:17:43;;;;;;;7.78;1.40;;;;;;;;;;5082024;28;20394;-64
2022/06/13 13:20:31;;;;;;;11.98;2.47;;;;;;;;;;5100112;28;20054;-64
2022/06/13 13:23:02;;;;;;;10.48;1.58;;;;;;;;;;5104208;28;20098;-64
2022/06/13 13:25:38;;;;;;;10.18;1.50;;;;;;;;;;5095824;28;20032;-64
2022/06/13 13:28:20;;;;;;;7.38;1.60;;;;;;;;;;5085979;28;20055;-64
2022/06/13 13:30:51;;;;;;;8.45;1.65;;;;;;;;;;5101616;28;20040;-64
2022/06/13 13:33:17;;;;;;;8.38;1.48;;;;;;;;;;5105743;28;20084;-64
2022/06/13 13:35:44;;;;;;;7.38;1.65;;;;;;;;;;5085000;28;21265;-64
2022/06/13 13:38:10;;;;;;;6.93;1.30;;;;;;;;;;5083823;28;20147;-64
2022/06/13 13:40:43;;;;;;;9.75;1.73;;;;;;;;;;5087693;28;20047;-64
2022/06/13 13:43:29;;;;;;;13.45;2.45;;;;;;;;;;5105154;28;21016;-64
2022/06/13 13:45:55;;;;;;;11.38;1.75;;;;;;;;;;5082980;28;20056;-64
2022/06/13 13:48:40;;;;;;;11.13;2.13;;;;;;;;;;5106111;28;20579;-64
2022/06/13 13:51:12;;;;;;;5.90;1.77;;;;;;;;;;5105525;28;20090;-64
2022/06/13 13:53:43;;;;;;;8.20;1.42;;;;;;;;;;5103297;28;20234;-64
2022/06/13 13:56:14;;;;;;;7.15;1.38;;;;;;;;;;5102020;28;20126;-64
2022/06/13 13:58:42;;;;;;;5.35;1.27;;;;;;;;;;5086264;28;20104;-64
2022/06/13 14:01:10;;;;;;;5.60;1.30;;;;;;;;;;5103220;28;20039;-63
2022/06/13 14:03:37;;;;;;;5.22;1.27;;;;;;;;;;5101553;28;20048;-64
2022/06/13 14:06:11;;;;;;;7.93;2.17;;;;;;;;;;5082818;28;20036;-64
2022/06/13 14:08:38;;;;;;;7.88;1.50;;;;;;;;;;5082557;28;20050;-64
2022/06/13 14:11:08;;;;;;;7.00;1.35;;;;;;;;;;5108441;28;20560;-64
2022/06/13 14:13:38;;;;;;;8.35;2.08;;;;;;;;;;5107374;28;20079;-64
2022/06/13 14:16:07;;;;;;;11.00;1.90;;;;;;;;;;5086836;28;20398;-63
2022/06/13 14:18:33;;;;;;;12.63;2.22;;;;;;;;;;5087243;28;20047;-64
2022/06/13 14:21:00;;;;;;;11.30;1.70;;;;;;;;;;5105122;28;20427;-63
2022/06/13 14:23:38;;;;;;;10.60;1.77;;;;;;;;;;5088214;28;20142;-63
2022/06/13 14:26:04;;;;;;;13.73;1.98;;;;;;;;;;5104845;28;20047;-63
2022/06/13 14:28:45;;;;;;;7.45;1.50;;;;;;;;;;5100470;28;20391;-63
2022/06/13 14:31:11;;;;;;;9.60;1.52;;;;;;;;;;5103737;28;20058;-63
2022/06/13 14:36:48;;;;;;;5.50;1.23;;;;;;;;;;5103851;28;20043;-63
2022/06/13 14:39:23;;;;;;;8.00;1.70;;;;;;;;;;5099599;28;20039;-63
2022/06/13 14:41:50;;;;;;;4.28;1.00;;;;;;;;;;5094361;28;20046;-63
2022/06/13 14:44:21;;;;;;;7.40;1.52;;;;;;;;;;5079709;28;20372;-63
2022/06/13 14:47:06;;;;;;;6.93;1.20;;;;;;;;;;5073644;28;20443;-64
2022/06/13 14:49:41;;;;;;;15.55;1.98;;;;;;;;;;5099323;28;20055;-64
2022/06/13 14:52:10;;;;;;;7.55;1.48;;;;;;;;;;5083661;28;20528;-64
2022/06/13 14:54:38;;;;;;;7.13;1.17;;;;;;;;;;5107109;28;20429;-63
2022/06/13 14:57:23;;;;;;;8.65;1.48;;;;;;;;;;5104604;28;20032;-63
2022/06/13 15:00:05;;;;;;;10.35;1.67;;;;;;;;;;5098616;28;20466;-64
2022/06/13 15:02:32;;;;;;;9.48;1.65;;;;;;;;;;5098580;28;20051;-63
2022/06/13 15:05:01;;;;;;;9.13;1.73;;;;;;;;;;5085965;28;20040;-63
2022/06/13 15:07:35;;;;;;;9.05;1.80;;;;;;;;;;5101879;28;20062;-63
2022/06/13 15:10:13;;;;;;;9.48;2.00;;;;;;;;;;5102701;28;20061;-63